createdAt,value
2023-05-02T05:03:09.608Z,500.00
2023-05-02T05:04:10.750Z,500.00
2023-05-02T05:05:10.561Z,500.00
2023-05-02T05:06:10.613Z,500.00
2023-05-02T05:07:09.613Z,500.00
2023-05-02T05:08:10.639Z,500.00
2023-05-02T05:09:09.673Z,400.00
2023-05-02T05:10:09.653Z,400.00
2023-05-02T05:11:09.701Z,400.00
2023-05-02T05:12:10.746Z,400.00
2023-05-02T05:13:10.793Z,400.00
2023-05-02T05:14:09.857Z,400.00
2023-05-02T05:15:09.922Z,400.00
2023-05-02T05:16:10.062Z,400.00
2023-05-02T05:17:10.053Z,400.00
2023-05-02T05:18:10.131Z,400.00
2023-05-02T05:19:11.201Z,400.00
2023-05-02T05:20:11.223Z,400.00
2023-05-02T05:21:11.306Z,400.00
2023-05-02T05:22:11.335Z,400.00
2023-05-02T05:23:11.375Z,400.00
2023-05-02T05:24:11.435Z,400.00
2023-05-02T05:25:10.481Z,400.00
2023-05-02T05:26:11.543Z,400.00
2023-05-02T05:27:11.632Z,400.00
2023-05-02T05:28:10.627Z,400.00
2023-05-02T05:29:11.693Z,400.00
2023-05-02T05:30:11.713Z,400.00
2023-05-02T05:31:10.826Z,400.00
2023-05-02T05:32:10.862Z,400.00
2023-05-02T05:33:11.911Z,400.00
2023-05-02T05:34:10.996Z,400.00
2023-05-02T05:35:11.992Z,400.00
2023-05-02T05:36:12.049Z,400.00
2023-05-02T05:37:12.071Z,400.00
2023-05-02T05:38:12.135Z,400.00
2023-05-02T05:39:11.186Z,400.00
2023-05-02T05:40:12.199Z,400.00
2023-05-02T05:41:12.287Z,400.00
2023-05-02T05:42:12.293Z,400.00
2023-05-02T05:43:12.337Z,400.00
2023-05-02T05:44:12.393Z,400.00
2023-05-02T05:45:12.427Z,400.00
2023-05-02T05:46:11.492Z,400.00
2023-05-02T05:47:12.584Z,400.00
2023-05-02T05:48:12.649Z,400.00
2023-05-02T05:49:12.665Z,406.00
2023-05-02T05:50:11.703Z,453.00
2023-05-02T05:51:11.806Z,491.00
2023-05-02T05:52:12.806Z,501.00
2023-05-02T05:53:12.857Z,502.00
2023-05-02T05:54:12.928Z,506.00
2023-05-02T05:55:12.986Z,502.00
2023-05-02T05:56:13.176Z,500.00
2023-05-02T05:57:12.102Z,501.00
2023-05-02T05:58:13.179Z,502.00
2023-05-02T05:59:12.208Z,500.00
2023-05-02T06:00:12.265Z,503.00
2023-05-02T06:01:12.331Z,501.00
2023-05-02T06:02:13.721Z,506.00
2023-05-02T06:03:13.512Z,505.00
2023-05-02T06:04:13.582Z,500.00
2023-05-02T06:05:12.691Z,498.00
2023-05-02T06:06:12.601Z,502.00
2023-05-02T06:07:13.655Z,502.00
2023-05-02T06:08:13.691Z,507.00
2023-05-02T06:09:12.745Z,500.00
2023-05-02T06:10:12.806Z,500.00
2023-05-02T06:11:12.851Z,502.00
2023-05-02T06:12:13.910Z,506.00
2023-05-02T06:13:12.972Z,507.00
2023-05-02T06:14:13.033Z,500.00
2023-05-02T06:15:14.090Z,503.00
2023-05-02T06:16:13.304Z,501.00
2023-05-02T06:17:14.401Z,507.00
2023-05-02T06:18:14.536Z,509.00
2023-05-02T06:19:13.404Z,521.00
2023-05-02T06:20:15.289Z,524.00
2023-05-02T06:21:14.415Z,523.00
2023-05-02T06:22:14.352Z,525.00
2023-05-02T06:23:13.373Z,526.00
2023-05-02T06:24:14.349Z,531.00
2023-05-02T06:25:14.305Z,521.00
2023-05-02T06:26:14.367Z,527.00
2023-05-02T06:27:13.344Z,530.00
2023-05-02T06:28:14.357Z,530.00
2023-05-02T06:29:14.281Z,530.00
2023-05-02T06:30:13.281Z,540.00
2023-05-02T06:31:13.280Z,538.00
2023-05-02T06:32:14.337Z,537.00
2023-05-02T06:33:14.314Z,537.00
2023-05-02T06:34:13.297Z,546.00
2023-05-02T06:35:13.371Z,548.00
2023-05-02T06:36:13.238Z,552.00
2023-05-02T06:37:14.229Z,565.00
2023-05-02T06:38:13.226Z,558.00
2023-05-02T06:39:14.240Z,571.00
2023-05-02T06:40:14.202Z,572.00
2023-05-02T06:41:15.883Z,569.00
2023-05-02T06:42:13.198Z,570.00
2023-05-02T06:43:14.187Z,571.00
2023-05-02T06:44:13.174Z,574.00
2023-05-02T06:45:14.164Z,577.00
2023-05-02T06:46:13.152Z,584.00
2023-05-02T06:47:14.222Z,575.00
2023-05-02T06:48:13.204Z,582.00
2023-05-02T06:49:13.122Z,590.00
2023-05-02T06:50:14.130Z,588.00
2023-05-02T06:51:13.122Z,596.00
2023-05-02T06:52:14.191Z,592.00
2023-05-02T06:53:13.113Z,597.00
2023-05-02T06:54:14.136Z,601.00
2023-05-02T06:55:14.150Z,602.00
2023-05-02T06:56:13.092Z,606.00
2023-05-02T06:57:13.198Z,613.00
2023-05-02T06:58:14.083Z,613.00
2023-05-02T06:59:14.064Z,616.00
2023-05-02T07:00:13.060Z,616.00
2023-05-02T07:01:14.143Z,613.00
2023-05-02T07:02:14.056Z,613.00
2023-05-02T07:03:13.128Z,612.00
2023-05-02T07:04:14.079Z,613.00
2023-05-02T07:05:13.021Z,612.00
2023-05-02T07:06:14.027Z,612.00
2023-05-02T07:07:14.021Z,610.00
2023-05-02T07:08:13.001Z,617.00
2023-05-02T07:09:14.053Z,618.00
2023-05-02T07:10:12.990Z,615.00
2023-05-02T07:11:13.005Z,616.00
2023-05-02T07:12:13.974Z,618.00
2023-05-02T07:13:12.963Z,623.00
2023-05-02T07:14:13.966Z,622.00
2023-05-02T07:15:14.102Z,627.00
2023-05-02T07:16:12.976Z,624.00
2023-05-02T07:17:14.011Z,615.00
2023-05-02T07:18:14.035Z,505.00
2023-05-02T07:19:12.929Z,499.00
2023-05-02T07:20:12.937Z,493.00
2023-05-02T07:21:13.922Z,501.00
2023-05-02T07:22:13.917Z,503.00
2023-05-02T07:23:12.903Z,517.00
2023-05-02T07:24:13.897Z,538.00
2023-05-02T07:25:12.902Z,542.00
2023-05-02T07:26:12.928Z,545.00
2023-05-02T07:27:13.896Z,548.00
2023-05-02T07:28:13.847Z,558.00
2023-05-02T07:29:13.864Z,563.00
2023-05-02T07:30:13.853Z,568.00
2023-05-02T07:31:13.915Z,581.00
2023-05-02T07:32:13.078Z,588.00
2023-05-02T07:33:14.038Z,600.00
2023-05-02T07:34:13.010Z,608.00
2023-05-02T07:35:14.042Z,603.00
2023-05-02T07:36:13.040Z,610.00
2023-05-02T07:37:13.095Z,612.00
2023-05-02T07:38:14.099Z,619.00
2023-05-02T07:39:14.147Z,620.00
2023-05-02T07:40:13.131Z,620.00
2023-05-02T07:41:14.152Z,633.00
2023-05-02T07:42:13.180Z,631.00
2023-05-02T07:43:14.234Z,635.00
2023-05-02T07:44:13.240Z,637.00
2023-05-02T07:45:14.339Z,642.00
2023-05-02T07:46:13.331Z,650.00
2023-05-02T07:47:14.727Z,655.00
2023-05-02T07:48:14.359Z,661.00
2023-05-02T07:49:14.313Z,661.00
2023-05-02T07:50:13.294Z,665.00
2023-05-02T07:51:14.340Z,660.00
2023-05-02T07:52:14.713Z,670.00
2023-05-02T07:53:13.356Z,669.00
2023-05-02T07:54:14.377Z,681.00
2023-05-02T07:55:13.375Z,680.00
2023-05-02T07:56:14.401Z,660.00
2023-05-02T07:57:14.441Z,667.00
2023-05-02T07:58:14.492Z,660.00
2023-05-02T07:59:14.483Z,656.00
2023-05-02T08:00:14.754Z,660.00
2023-05-02T08:01:13.492Z,662.00
2023-05-02T08:02:13.786Z,658.00
2023-05-02T08:03:14.821Z,657.00
2023-05-02T08:04:13.742Z,655.00
2023-05-02T08:05:14.785Z,657.00
2023-05-02T08:06:14.660Z,661.00
2023-05-02T08:07:13.613Z,673.00
2023-05-02T08:08:13.610Z,697.00
2023-05-02T08:09:13.612Z,701.00
2023-05-02T08:10:14.649Z,691.00
2023-05-02T08:11:13.619Z,670.00
2023-05-02T08:12:14.681Z,720.00
2023-05-02T08:13:14.729Z,708.00
2023-05-02T08:14:14.668Z,698.00
2023-05-02T08:19:02.705Z,500.00
2023-05-02T08:20:03.833Z,500.00
2023-05-02T08:21:02.768Z,500.00
2023-05-02T08:22:03.771Z,500.00
2023-05-02T08:23:02.837Z,500.00
2023-05-02T08:24:03.816Z,500.00
2023-05-02T08:25:02.847Z,500.00
2023-05-02T08:26:03.856Z,499.00
2023-05-02T08:27:03.876Z,500.00
2023-05-02T08:28:03.621Z,500.00
2023-05-02T08:29:03.891Z,501.00
2023-05-02T08:30:03.384Z,500.00
2023-05-02T08:31:03.929Z,502.00
2023-05-02T08:32:04.001Z,501.00
2023-05-02T08:33:03.087Z,507.00
2023-05-02T08:34:03.956Z,505.00
2023-05-02T08:35:04.023Z,500.00
2023-05-02T08:36:02.953Z,506.00
2023-05-02T08:37:02.979Z,509.00
2023-05-02T08:38:03.026Z,511.00
2023-05-02T08:39:03.022Z,509.00
2023-05-02T08:40:04.300Z,514.00
2023-05-02T08:41:03.003Z,517.00
2023-05-02T08:42:04.014Z,513.00
2023-05-02T08:43:04.400Z,513.00
2023-05-02T08:44:04.055Z,511.00
2023-05-02T08:45:04.060Z,515.00
2023-05-02T08:46:04.077Z,514.00
2023-05-02T08:47:13.141Z,512.00
2023-05-02T08:48:04.175Z,513.00
2023-05-02T08:49:04.248Z,514.00
2023-05-02T08:50:04.182Z,513.00
2023-05-02T08:51:03.117Z,512.00
2023-05-02T08:52:04.097Z,513.00
2023-05-02T08:53:03.104Z,508.00
2023-05-02T08:54:04.087Z,511.00
2023-05-02T08:55:04.418Z,507.00
2023-05-02T08:56:04.096Z,506.00
2023-05-02T08:57:04.044Z,505.00
2023-05-02T08:58:04.433Z,508.00
2023-05-02T08:59:03.027Z,509.00
2023-05-02T09:00:04.031Z,510.00
2023-05-02T09:01:04.100Z,510.00
2023-05-02T09:02:03.015Z,511.00
2023-05-02T09:03:04.062Z,512.00
2023-05-02T09:04:03.019Z,511.00
2023-05-02T09:05:03.982Z,513.00
2023-05-02T09:06:04.039Z,521.00
2023-05-02T09:07:04.007Z,512.00
2023-05-02T09:08:02.996Z,520.00
2023-05-02T09:09:03.994Z,517.00
2023-05-02T09:10:03.966Z,517.00
2023-05-02T09:11:02.946Z,517.00
2023-05-02T09:12:04.050Z,525.00
2023-05-02T09:13:03.950Z,528.00
2023-05-02T09:14:04.041Z,532.00
2023-05-02T09:15:03.984Z,527.00
2023-05-02T09:16:03.939Z,526.00
2023-05-02T09:17:03.208Z,526.00
2023-05-02T09:18:03.136Z,525.00
2023-05-02T09:19:03.908Z,530.00
2023-05-02T09:20:03.883Z,530.00
2023-05-02T09:21:03.979Z,536.00
2023-05-02T09:22:02.900Z,536.00
2023-05-02T09:23:02.908Z,533.00
2023-05-02T09:24:02.896Z,532.00
2023-05-02T09:25:03.863Z,537.00
2023-05-02T09:26:02.877Z,536.00
2023-05-02T09:27:03.929Z,545.00
2023-05-02T09:28:03.881Z,550.00
2023-05-02T09:29:02.841Z,546.00
2023-05-02T09:30:03.919Z,544.00
2023-05-02T09:31:03.962Z,544.00
2023-05-02T09:32:03.003Z,544.00
2023-05-02T09:33:04.540Z,544.00
2023-05-02T09:34:04.014Z,545.00
2023-05-02T09:35:04.081Z,546.00
2023-05-02T09:36:04.104Z,548.00
2023-05-02T09:37:04.174Z,550.00
2023-05-02T09:38:04.129Z,551.00
2023-05-02T09:39:03.131Z,553.00
2023-05-02T09:40:04.303Z,554.00
2023-05-02T09:41:04.128Z,554.00
2023-05-02T09:42:04.240Z,557.00
2023-05-02T09:43:04.140Z,558.00
2023-05-02T09:44:04.127Z,559.00
2023-05-02T09:45:03.146Z,476.00
2023-05-02T09:46:04.225Z,411.00
2023-05-02T09:47:03.196Z,400.00
2023-05-02T09:48:03.536Z,467.00
2023-05-02T09:49:03.231Z,502.00
2023-05-02T09:50:04.230Z,506.00
2023-05-02T09:51:03.313Z,522.00
2023-05-02T09:52:03.265Z,531.00
2023-05-02T09:53:03.330Z,548.00
2023-05-02T09:54:03.400Z,562.00
2023-05-02T09:55:03.449Z,568.00
2023-05-02T09:56:04.446Z,576.00
2023-05-02T09:57:03.443Z,589.00
2023-05-02T09:58:04.496Z,603.00
2023-05-02T09:59:04.476Z,614.00
2023-05-02T10:00:04.469Z,626.00
2023-05-02T10:01:04.490Z,634.00
2023-05-02T10:02:04.628Z,644.00
2023-05-02T10:03:04.505Z,650.00
2023-05-02T10:04:04.550Z,657.00
2023-05-02T10:05:03.645Z,662.00
2023-05-02T10:06:03.499Z,665.00
2023-05-02T10:07:04.516Z,665.00
2023-05-02T10:08:04.546Z,670.00
2023-05-02T10:09:04.552Z,669.00
2023-05-02T10:10:03.590Z,682.00
2023-05-02T10:11:04.577Z,691.00
2023-05-02T10:12:04.576Z,704.00
2023-05-02T10:13:03.608Z,709.00
2023-05-02T10:14:04.553Z,698.00
2023-05-02T10:15:03.635Z,708.00
2023-05-02T10:16:03.580Z,715.00
2023-05-02T10:17:03.554Z,736.00
2023-05-02T10:18:04.673Z,755.00
2023-05-02T10:19:03.758Z,741.00
2023-05-02T10:20:04.724Z,758.00
2023-05-02T10:21:04.761Z,754.00
2023-05-02T10:22:04.840Z,760.00
2023-05-02T10:23:04.918Z,774.00
2023-05-02T10:24:04.989Z,771.00
2023-05-02T10:25:04.983Z,777.00
2023-05-02T10:26:03.993Z,779.00
2023-05-02T10:27:05.033Z,784.00
2023-05-02T10:28:04.017Z,788.00
2023-05-02T10:29:04.993Z,797.00
2023-05-02T10:30:05.011Z,808.00
2023-05-02T10:31:05.060Z,810.00
2023-05-02T10:32:05.102Z,803.00
2023-05-02T10:33:05.004Z,808.00
2023-05-02T10:34:04.008Z,800.00
2023-05-02T10:35:04.987Z,809.00
2023-05-02T10:36:05.005Z,818.00
2023-05-02T10:37:04.020Z,801.00
2023-05-02T10:38:05.048Z,803.00
2023-05-02T10:39:04.002Z,798.00
2023-05-02T10:40:05.002Z,796.00
2023-05-02T10:41:05.072Z,797.00
2023-05-02T10:42:04.045Z,811.00
2023-05-02T10:43:05.051Z,830.00
2023-05-02T10:44:04.474Z,830.00
2023-05-02T10:45:05.198Z,825.00
2023-05-02T10:46:05.145Z,830.00
2023-05-02T10:47:05.186Z,835.00
2023-05-02T10:48:04.233Z,784.00
2023-05-02T10:49:05.327Z,652.00
2023-05-02T10:50:04.383Z,580.00
2023-05-02T10:51:05.155Z,494.00
2023-05-02T10:52:04.160Z,512.00
2023-05-02T10:53:04.179Z,497.00
2023-05-02T10:54:05.212Z,501.00
2023-05-02T10:55:05.241Z,511.00
2023-05-02T10:56:04.289Z,510.00
2023-05-02T10:57:05.263Z,500.00
2023-05-02T10:58:05.304Z,495.00
2023-05-02T10:59:05.355Z,501.00
2023-05-02T11:00:04.384Z,500.00
2023-05-02T11:01:05.456Z,518.00
2023-05-02T11:02:07.287Z,525.00
2023-05-02T11:03:04.581Z,510.00
2023-05-02T11:04:05.463Z,524.00
2023-05-02T11:05:05.496Z,516.00
2023-05-02T11:06:04.451Z,543.00
2023-05-02T11:07:05.427Z,535.00
2023-05-02T11:08:05.438Z,519.00
2023-05-02T11:09:05.414Z,533.00
2023-05-02T11:10:05.413Z,567.00
2023-05-02T11:11:05.424Z,592.00
2023-05-02T11:12:04.440Z,595.00
2023-05-02T11:13:05.381Z,599.00
2023-05-02T11:14:05.400Z,627.00
2023-05-02T11:15:04.402Z,636.00
2023-05-02T11:16:04.406Z,659.00
2023-05-02T11:17:04.599Z,706.00
2023-05-02T11:18:05.413Z,756.00
2023-05-02T11:19:05.369Z,814.00
2023-05-02T11:20:05.347Z,865.00
2023-05-02T11:21:05.340Z,867.00
2023-05-02T11:22:05.342Z,913.00
2023-05-02T11:23:04.308Z,928.00
2023-05-02T11:24:04.326Z,933.00
2023-05-02T11:25:05.325Z,969.00
2023-05-02T11:26:05.300Z,995.00
2023-05-02T11:27:04.285Z,1003.00
2023-05-02T11:28:05.286Z,1010.00
2023-05-02T11:29:05.299Z,1011.00
2023-05-02T11:30:05.280Z,1015.00
2023-05-02T11:31:04.307Z,1025.00
2023-05-02T11:32:05.330Z,1042.00
2023-05-02T11:33:05.396Z,1031.00
2023-05-02T11:34:05.251Z,1042.00
2023-05-02T11:35:05.235Z,1044.00
2023-05-02T11:36:04.218Z,1049.00
2023-05-02T11:37:05.228Z,1083.00
2023-05-02T11:38:05.237Z,1067.00
2023-05-02T11:39:04.474Z,1086.00
2023-05-02T11:40:05.291Z,1077.00
2023-05-02T11:41:05.338Z,1072.00
2023-05-02T11:42:05.366Z,1072.00
2023-05-02T11:43:05.386Z,1090.00
2023-05-02T11:44:05.478Z,1100.00
2023-05-02T11:45:05.420Z,1076.00
2023-05-02T11:46:05.510Z,1095.00
2023-05-02T11:47:04.507Z,1090.00
2023-05-02T11:48:05.579Z,1087.00
2023-05-02T11:49:06.138Z,1080.00
2023-05-02T11:50:04.641Z,1098.00
2023-05-02T11:51:04.739Z,1086.00
2023-05-02T11:52:05.730Z,1091.00
2023-05-02T11:53:04.783Z,1093.00
2023-05-02T11:54:04.841Z,1102.00
2023-05-02T11:55:05.894Z,1101.00
2023-05-02T11:56:05.074Z,1111.00
2023-05-02T11:57:06.027Z,1107.00
2023-05-02T11:58:05.062Z,1098.00
2023-05-02T11:59:06.093Z,1101.00
2023-05-02T12:00:06.140Z,1097.00
2023-05-02T12:01:06.187Z,1091.00
2023-05-02T12:02:05.232Z,1100.00
2023-05-02T12:03:06.365Z,1110.00
2023-05-02T12:04:06.281Z,1098.00
2023-05-02T12:05:06.397Z,1096.00
2023-05-02T12:06:05.537Z,1103.00
2023-05-02T12:07:05.531Z,1110.00
2023-05-02T12:08:06.474Z,1106.00
2023-05-02T12:09:06.532Z,1108.00
2023-05-02T12:10:06.594Z,1114.00
2023-05-02T12:11:06.649Z,1112.00
2023-05-02T12:12:06.769Z,1103.00
2023-05-02T12:13:05.764Z,1128.00
2023-05-02T12:14:06.810Z,1128.00
2023-05-02T12:15:06.808Z,1138.00
2023-05-02T12:16:06.857Z,1138.00
2023-05-02T12:17:06.882Z,1129.00
2023-05-02T12:18:07.021Z,1139.00
2023-05-02T12:19:07.176Z,1138.00
2023-05-02T12:20:06.987Z,1138.00
2023-05-02T12:21:07.054Z,1149.00
2023-05-02T12:22:07.065Z,1158.00
2023-05-02T12:23:07.140Z,1179.00
2023-05-02T12:24:06.139Z,1166.00
2023-05-02T12:25:07.155Z,1165.00
2023-05-02T12:26:07.376Z,1163.00
2023-05-02T12:27:06.194Z,1181.00
2023-05-02T12:28:07.230Z,1176.00
2023-05-02T12:29:07.260Z,1168.00
2023-05-02T12:30:07.309Z,1168.00
2023-05-02T12:31:07.390Z,1167.00
2023-05-02T12:32:07.353Z,1157.00
2023-05-02T12:33:07.478Z,1152.00
2023-05-02T12:34:06.446Z,1156.00
2023-05-02T12:35:07.493Z,1145.00
2023-05-02T12:36:06.520Z,1162.00
2023-05-02T12:37:07.576Z,1158.00
2023-05-02T12:38:06.578Z,1156.00
2023-05-02T12:39:07.634Z,1165.00
2023-05-02T12:40:07.663Z,1168.00
2023-05-02T12:41:06.696Z,1157.00
2023-05-02T12:42:07.735Z,1154.00
2023-05-02T12:43:07.784Z,1144.00
2023-05-02T12:44:08.032Z,1150.00
2023-05-02T12:45:06.854Z,1146.00
2023-05-02T12:46:07.885Z,1156.00
2023-05-02T12:47:08.094Z,1165.00
2023-05-02T12:48:07.012Z,1180.00
2023-05-02T12:49:08.074Z,5620.00
2023-05-02T12:50:08.041Z,4893.00
2023-05-02T12:51:08.128Z,4752.00
2023-05-02T12:52:08.105Z,3477.00
2023-05-02T12:53:08.151Z,4239.00
2023-05-02T12:54:08.202Z,4814.00
2023-05-02T12:55:08.234Z,4734.00
2023-05-02T12:56:07.279Z,4701.00
2023-05-02T12:57:08.298Z,4673.00
2023-05-02T12:58:07.334Z,4639.00
2023-05-02T12:59:07.367Z,4591.00
2023-05-02T13:00:08.408Z,4412.00
2023-05-02T13:01:07.482Z,4174.00
2023-05-02T13:02:07.473Z,3974.00
2023-05-02T13:03:07.637Z,3895.00
2023-05-02T13:04:07.640Z,3858.00
2023-05-02T13:05:07.625Z,3851.00
2023-05-02T13:06:07.723Z,3724.00
2023-05-02T13:07:08.763Z,3584.00
2023-05-02T13:08:07.819Z,3466.00
2023-05-02T13:09:08.865Z,3329.00
2023-05-02T13:10:08.958Z,3246.00
2023-05-02T13:11:08.984Z,3218.00
2023-05-02T13:12:09.048Z,3211.00
2023-05-02T13:13:08.113Z,3191.00
2023-05-02T13:14:09.129Z,3134.00
2023-05-02T13:15:08.247Z,3122.00
2023-05-02T13:16:09.388Z,3109.00
2023-05-02T13:17:08.281Z,3126.00
2023-05-02T13:18:09.283Z,3122.00
2023-05-02T13:19:08.192Z,3152.00
2023-05-02T13:20:09.231Z,3123.00
2023-05-02T13:21:08.223Z,3128.00
2023-05-02T13:22:09.214Z,3111.00
2023-05-02T13:23:09.236Z,3098.00
2023-05-02T13:24:08.224Z,3051.00
2023-05-02T13:25:09.255Z,3030.00
2023-05-02T13:26:09.301Z,2997.00
2023-05-02T13:27:08.354Z,2989.00
2023-05-02T13:28:09.398Z,2961.00
2023-05-02T13:29:08.425Z,2940.00
2023-05-02T13:30:09.966Z,2927.00
2023-05-02T13:31:08.592Z,2909.00
2023-05-02T13:32:09.530Z,2903.00
2023-05-02T13:33:09.613Z,2874.00
2023-05-02T13:34:09.577Z,2867.00
2023-05-02T13:35:09.623Z,2867.00
2023-05-02T13:36:08.701Z,2835.00
2023-05-02T13:37:09.711Z,2843.00
2023-05-02T13:38:08.725Z,2822.00
2023-05-02T13:39:09.856Z,2823.00
2023-05-02T13:40:09.822Z,2812.00
2023-05-02T13:41:09.823Z,2808.00
2023-05-02T13:42:08.850Z,2795.00
2023-05-02T13:43:09.852Z,2787.00
2023-05-02T13:44:08.867Z,2786.00
2023-05-02T13:45:08.878Z,2787.00
2023-05-02T13:46:09.927Z,2785.00
2023-05-02T13:47:08.954Z,2774.00
2023-05-02T13:48:09.082Z,2773.00
2023-05-02T13:49:10.071Z,2760.00
2023-05-02T13:50:10.135Z,2774.00
2023-05-02T13:51:10.189Z,2759.00
2023-05-02T13:52:10.270Z,2744.00
2023-05-02T13:53:10.323Z,2751.00
2023-05-02T13:54:09.365Z,2738.00
2023-05-02T13:55:09.430Z,2739.00
2023-05-02T13:56:09.360Z,2733.00
2023-05-02T13:57:09.381Z,2749.00
2023-05-02T13:58:10.393Z,2722.00
2023-05-02T13:59:11.352Z,2720.00
2023-05-02T14:00:09.473Z,2715.00
2023-05-02T14:01:10.541Z,2714.00
2023-05-02T14:02:09.741Z,2698.00
2023-05-02T14:03:09.643Z,2703.00
2023-05-02T14:04:09.692Z,2709.00
2023-05-02T14:05:10.633Z,2692.00
2023-05-02T14:06:10.669Z,2691.00
2023-05-02T14:07:10.684Z,2693.00
2023-05-02T14:08:10.738Z,2686.00
2023-05-02T14:09:09.729Z,2690.00
2023-05-02T14:10:09.768Z,2668.00
2023-05-02T14:11:09.796Z,2670.00
2023-05-02T14:12:10.828Z,2664.00
2023-05-02T14:13:09.866Z,2658.00
2023-05-02T14:14:10.928Z,2660.00
2023-05-02T14:15:10.001Z,2664.00
2023-05-02T14:16:11.063Z,2660.00
2023-05-02T14:17:11.015Z,2647.00
2023-05-02T14:18:10.123Z,2633.00
2023-05-02T14:19:11.085Z,2640.00
2023-05-02T14:20:11.108Z,2656.00
2023-05-02T14:21:10.126Z,2651.00
2023-05-02T14:22:10.133Z,2648.00
2023-05-02T14:23:10.151Z,2680.00
2023-05-02T14:24:10.181Z,2647.00
2023-05-02T14:25:11.198Z,2608.00
2023-05-02T14:26:11.220Z,2603.00
2023-05-02T14:27:11.305Z,2608.00
2023-05-02T14:28:10.344Z,2622.00
2023-05-02T14:29:10.363Z,2618.00
2023-05-02T14:30:10.428Z,2608.00
2023-05-02T14:31:11.507Z,2612.00
2023-05-02T14:32:10.459Z,2605.00
2023-05-02T14:33:11.500Z,2594.00
2023-05-02T14:34:10.513Z,2583.00
2023-05-02T14:35:11.529Z,2577.00
2023-05-02T14:36:10.548Z,2582.00
2023-05-02T14:37:10.545Z,2565.00
2023-05-02T14:38:11.581Z,2552.00
2023-05-02T14:39:11.611Z,2561.00
2023-05-02T14:40:11.628Z,2563.00
2023-05-02T14:41:11.621Z,2549.00
2023-05-02T14:42:10.638Z,2556.00
2023-05-02T14:43:14.791Z,2555.00
2023-05-02T14:44:10.629Z,2554.00
2023-05-02T14:45:11.646Z,2540.00
2023-05-02T14:46:10.647Z,2550.00
2023-05-02T14:47:10.751Z,2548.00
2023-05-02T14:48:11.796Z,2533.00
2023-05-02T14:49:11.602Z,2541.00
2023-05-02T14:50:11.619Z,2524.00
2023-05-02T14:51:10.593Z,2524.00
2023-05-02T14:52:11.594Z,2524.00
2023-05-02T14:53:10.589Z,2510.00
2023-05-02T14:54:10.587Z,2513.00
2023-05-02T14:55:10.566Z,2496.00
2023-05-02T14:56:11.561Z,2492.00
2023-05-02T14:57:11.559Z,2486.00
2023-05-02T14:58:10.575Z,2486.00
2023-05-02T14:59:10.664Z,2481.00
2023-05-02T15:00:10.629Z,2475.00
2023-05-02T15:01:11.607Z,2480.00
2023-05-02T15:02:11.623Z,2478.00
2023-05-02T15:03:10.637Z,2468.00
2023-05-02T15:04:10.757Z,2465.00
2023-05-02T15:05:10.516Z,2467.00
2023-05-02T15:06:10.558Z,2455.00
2023-05-02T15:07:10.529Z,2466.00
2023-05-02T15:08:11.511Z,2448.00
2023-05-02T15:09:10.486Z,2434.00
2023-05-02T15:10:11.487Z,2441.00
2023-05-02T15:11:11.502Z,2437.00
2023-05-02T15:12:11.461Z,2429.00
2023-05-02T15:13:11.453Z,2423.00
2023-05-02T15:14:10.448Z,2416.00
2023-05-02T15:15:10.453Z,2406.00
2023-05-02T15:16:11.518Z,2411.00
2023-05-02T15:17:11.479Z,2405.00
2023-05-02T15:18:10.484Z,2409.00
2023-05-02T15:19:11.414Z,2394.00
2023-05-02T15:20:11.423Z,2411.00
2023-05-02T15:21:11.401Z,2401.00
2023-05-02T15:22:10.393Z,2390.00
2023-05-02T15:23:11.398Z,2381.00
2023-05-02T15:24:10.395Z,2383.00
2023-05-02T15:25:11.400Z,2376.00
2023-05-02T15:26:11.362Z,2374.00
2023-05-02T15:27:11.367Z,2364.00
2023-05-02T15:28:11.360Z,2363.00
2023-05-02T15:29:11.353Z,2353.00
